Terminal Aerodrome Forecast
Issued by NWS Cleveland, OH

Home | Current Version | Previous Version | Graphics & Text | Print | Product List | Glossary On
Versions: 1 2 3 4 5 6 7 8 9 10 11 12 13 14 15 16 17 18
000
FTUS41 KCLE 211731
TAFMFD
TAF
KMFD 211731Z 2118/2218 20020G30KT P6SM BKN250
     FM212200 22016G25KT P6SM BKN100
     FM220000 24009KT P6SM VCSH BKN050
      TEMPO 2200/2204 5SM -SHRA OVC025
     FM220400 29011G21KT 4SM -SHRASN OVC025
     FM220600 29011G20KT 5SM -SHSN BKN030
     FM220800 30010G18KT P6SM BKN045
     FM221500 31007KT P6SM SCT050=

USA.gov is the U.S. government's official web portal to all federal, state and local government web resources and services.